sensor_id;sensor_type;location;lat;lon;timestamp;pressure;altitude;pressure_sealevel;temperature;humidity
60228;BME280;46091;46.512;6.626;2023-05-25T05:30:11;96892.63;;;15.55;58.46
60228;BME280;46091;46.512;6.626;2023-05-25T05:32:14;96898.44;;;15.89;58.09
60228;BME280;46091;46.512;6.626;2023-05-25T05:34:17;96882.63;;;16.06;57.58
60228;BME280;46091;46.512;6.626;2023-05-25T05:36:19;96894.53;;;16.21;57.27
60228;BME280;46091;46.512;6.626;2023-05-25T05:38:22;96895.38;;;16.34;57.12
60228;BME280;46091;46.512;6.626;2023-05-25T05:40:26;96911.53;;;16.50;56.99
60228;BME280;46091;46.512;6.626;2023-05-25T05:42:29;96911.47;;;16.57;56.69
60228;BME280;46091;46.512;6.626;2023-05-25T05:44:31;96912.78;;;16.66;56.64
60228;BME280;46091;46.512;6.626;2023-05-25T05:46:36;96909.78;;;16.74;56.49
60228;BME280;46091;46.512;6.626;2023-05-25T05:48:39;96910.97;;;16.78;56.29
60228;BME280;46091;46.512;6.626;2023-05-25T05:50:42;96910.50;;;16.81;56.27
60228;BME280;46091;46.512;6.626;2023-05-25T05:52:45;96901.44;;;16.82;56.24
60228;BME280;46091;46.512;6.626;2023-05-25T05:54:48;96915.38;;;16.84;56.37
60228;BME280;46091;46.512;6.626;2023-05-25T05:56:51;96908.56;;;16.88;56.16
60228;BME280;46091;46.512;6.626;2023-05-25T05:58:54;96915.38;;;16.84;56.12
60228;BME280;46091;46.512;6.626;2023-05-25T06:00:58;96919.22;;;16.88;56.33
60228;BME280;46091;46.512;6.626;2023-05-25T06:03:04;96919.56;;;16.92;56.19
60228;BME280;46091;46.512;6.626;2023-05-25T06:05:08;96916.66;;;16.94;56.24
60228;BME280;46091;46.512;6.626;2023-05-25T06:07:10;96915.28;;;17.03;56.23
60228;BME280;46091;46.512;6.626;2023-05-25T06:09:13;96919.59;;;17.04;56.00
60228;BME280;46091;46.512;6.626;2023-05-25T06:11:16;96930.59;;;16.96;55.94
60228;BME280;46091;46.512;6.626;2023-05-25T06:13:19;96930.03;;;16.94;56.09
60228;BME280;46091;46.512;6.626;2023-05-25T06:15:24;96939.91;;;17.05;56.07
60228;BME280;46091;46.512;6.626;2023-05-25T06:17:32;96935.53;;;17.10;56.02
60228;BME280;46091;46.512;6.626;2023-05-25T06:19:37;96942.81;;;17.15;56.03
60228;BME280;46091;46.512;6.626;2023-05-25T06:21:40;96939.69;;;17.18;55.93
60228;BME280;46091;46.512;6.626;2023-05-25T06:23:43;96949.31;;;17.19;56.02
60228;BME280;46091;46.512;6.626;2023-05-25T06:25:50;96946.31;;;17.27;55.91
60228;BME280;46091;46.512;6.626;2023-05-25T06:27:54;96941.56;;;17.29;55.82
60228;BME280;46091;46.512;6.626;2023-05-25T06:29:57;96949.94;;;17.33;56.02
60228;BME280;46091;46.512;6.626;2023-05-25T06:32:00;96950.75;;;17.33;55.92
60228;BME280;46091;46.512;6.626;2023-05-25T06:34:03;96952.13;;;17.36;55.91
60228;BME280;46091;46.512;6.626;2023-05-25T06:36:08;96952.38;;;17.34;56.02
60228;BME280;46091;46.512;6.626;2023-05-25T06:38:11;96951.91;;;17.37;56.00
60228;BME280;46091;46.512;6.626;2023-05-25T06:40:15;96952.00;;;17.42;56.08
60228;BME280;46091;46.512;6.626;2023-05-25T06:42:18;96950.50;;;17.46;55.96
60228;BME280;46091;46.512;6.626;2023-05-25T06:44:21;96952.72;;;17.50;55.82
60228;BME280;46091;46.512;6.626;2023-05-25T06:46:24;96958.88;;;17.50;55.91
60228;BME280;46091;46.512;6.626;2023-05-25T06:48:27;96959.69;;;17.51;56.09
60228;BME280;46091;46.512;6.626;2023-05-25T06:50:30;96962.13;;;17.52;55.97
60228;BME280;46091;46.512;6.626;2023-05-25T06:52:35;96952.25;;;17.53;55.97
60228;BME280;46091;46.512;6.626;2023-05-25T06:54:38;96960.84;;;17.55;56.02
60228;BME280;46091;46.512;6.626;2023-05-25T06:56:40;96955.50;;;17.55;56.05
60228;BME280;46091;46.512;6.626;2023-05-25T06:58:43;96951.78;;;17.56;56.12
60228;BME280;46091;46.512;6.626;2023-05-25T07:00:46;96952.94;;;17.60;56.17
60228;BME280;46091;46.512;6.626;2023-05-25T07:02:49;96957.34;;;17.66;56.30
60228;BME280;46091;46.512;6.626;2023-05-25T07:04:52;96959.94;;;17.72;56.23
60228;BME280;46091;46.512;6.626;2023-05-25T07:06:55;96963.31;;;17.80;56.31
60228;BME280;46091;46.512;6.626;2023-05-25T07:09:00;96971.44;;;17.85;56.12
60228;BME280;46091;46.512;6.626;2023-05-25T07:11:04;96965.38;;;17.89;56.05
60228;BME280;46091;46.512;6.626;2023-05-25T07:13:09;96961.44;;;17.92;55.90
60228;BME280;46091;46.512;6.626;2023-05-25T07:15:12;96964.44;;;17.95;56.15
60228;BME280;46091;46.512;6.626;2023-05-25T07:17:17;96971.97;;;17.98;56.01
60228;BME280;46091;46.512;6.626;2023-05-25T07:19:20;96969.88;;;18.00;56.05
60228;BME280;46091;46.512;6.626;2023-05-25T07:21:23;96968.03;;;18.01;56.07
60228;BME280;46091;46.512;6.626;2023-05-25T07:23:27;96973.59;;;17.99;55.75
60228;BME280;46091;46.512;6.626;2023-05-25T07:25:37;96989.09;;;17.97;56.14
60228;BME280;46091;46.512;6.626;2023-05-25T07:27:40;96986.78;;;18.01;56.20
60228;BME280;46091;46.512;6.626;2023-05-25T07:29:44;96991.16;;;18.07;55.96
60228;BME280;46091;46.512;6.626;2023-05-25T07:31:48;96996.84;;;18.11;56.01
60228;BME280;46091;46.512;6.626;2023-05-25T07:33:52;96998.84;;;18.15;55.88
60228;BME280;46091;46.512;6.626;2023-05-25T07:35:56;96994.63;;;18.19;55.97
60228;BME280;46091;46.512;6.626;2023-05-25T07:38:00;97001.16;;;18.23;55.93
60228;BME280;46091;46.512;6.626;2023-05-25T07:40:06;97002.41;;;18.21;55.53
60228;BME280;46091;46.512;6.626;2023-05-25T07:42:10;97005.47;;;18.13;55.88
60228;BME280;46091;46.512;6.626;2023-05-25T07:44:13;97016.38;;;18.11;55.84
60228;BME280;46091;46.512;6.626;2023-05-25T07:46:16;97010.34;;;18.16;55.96
60228;BME280;46091;46.512;6.626;2023-05-25T07:48:22;97014.16;;;18.20;55.76
60228;BME280;46091;46.512;6.626;2023-05-25T07:50:25;97008.94;;;18.25;55.50
60228;BME280;46091;46.512;6.626;2023-05-25T07:52:31;97020.91;;;18.22;55.65
60228;BME280;46091;46.512;6.626;2023-05-25T07:54:34;97020.56;;;18.19;55.54
60228;BME280;46091;46.512;6.626;2023-05-25T07:56:40;97022.56;;;18.23;55.60
60228;BME280;46091;46.512;6.626;2023-05-25T07:58:45;97011.13;;;18.28;55.56
60228;BME280;46091;46.512;6.626;2023-05-25T08:00:48;97017.53;;;18.27;55.21
60228;BME280;46091;46.512;6.626;2023-05-25T08:02:52;97022.19;;;18.20;55.48
60228;BME280;46091;46.512;6.626;2023-05-25T08:04:55;97016.84;;;18.20;55.47
60228;BME280;46091;46.512;6.626;2023-05-25T08:06:58;97022.31;;;18.25;55.39
60228;BME280;46091;46.512;6.626;2023-05-25T08:09:03;97016.25;;;18.29;55.25
60228;BME280;46091;46.512;6.626;2023-05-25T08:11:06;97006.34;;;18.30;55.31
60228;BME280;46091;46.512;6.626;2023-05-25T08:13:10;97011.22;;;18.33;55.25
60228;BME280;46091;46.512;6.626;2023-05-25T08:15:15;97015.53;;;18.34;55.13
60228;BME280;46091;46.512;6.626;2023-05-25T08:17:18;97019.38;;;18.38;55.28
60228;BME280;46091;46.512;6.626;2023-05-25T08:19:21;97014.69;;;18.45;54.97
60228;BME280;46091;46.512;6.626;2023-05-25T08:21:24;97020.41;;;18.49;54.81
60228;BME280;46091;46.512;6.626;2023-05-25T08:23:27;97025.03;;;18.53;54.85
60228;BME280;46091;46.512;6.626;2023-05-25T08:25:30;97020.84;;;18.57;54.84
60228;BME280;46091;46.512;6.626;2023-05-25T08:27:34;97029.44;;;18.59;54.53
60228;BME280;46091;46.512;6.626;2023-05-25T08:29:37;97028.75;;;18.64;54.50
60228;BME280;46091;46.512;6.626;2023-05-25T08:31:41;97023.25;;;18.71;54.71
60228;BME280;46091;46.512;6.626;2023-05-25T08:33:47;97034.53;;;18.73;54.41
60228;BME280;46091;46.512;6.626;2023-05-25T08:35:51;97028.13;;;18.74;54.35
60228;BME280;46091;46.512;6.626;2023-05-25T08:37:54;97029.84;;;18.80;54.43
60228;BME280;46091;46.512;6.626;2023-05-25T08:39:57;97034.16;;;18.81;54.46
60228;BME280;46091;46.512;6.626;2023-05-25T08:42:04;97031.00;;;18.84;54.22
60228;BME280;46091;46.512;6.626;2023-05-25T08:44:09;97037.75;;;18.86;54.35
60228;BME280;46091;46.512;6.626;2023-05-25T08:46:12;97039.13;;;18.89;54.29
60228;BME280;46091;46.512;6.626;2023-05-25T08:48:18;97034.81;;;18.88;54.35
60228;BME280;46091;46.512;6.626;2023-05-25T08:50:41;97039.69;;;18.91;53.97
60228;BME280;46091;46.512;6.626;2023-05-25T08:52:48;97038.16;;;18.95;54.13
60228;BME280;46091;46.512;6.626;2023-05-25T08:54:54;97045.72;;;18.98;54.00
60228;BME280;46091;46.512;6.626;2023-05-25T08:57:06;97041.97;;;18.99;54.04
60228;BME280;46091;46.512;6.626;2023-05-25T08:59:20;97039.41;;;19.04;54.05
60228;BME280;46091;46.512;6.626;2023-05-25T09:01:25;97037.88;;;19.08;53.71
60228;BME280;46091;46.512;6.626;2023-05-25T09:03:32;97055.50;;;19.04;54.04
60228;BME280;46091;46.512;6.626;2023-05-25T09:05:35;97056.31;;;19.05;53.69
60228;BME280;46091;46.512;6.626;2023-05-25T09:07:40;97061.16;;;19.08;53.96
60228;BME280;46091;46.512;6.626;2023-05-25T09:09:44;97059.88;;;19.10;53.89
60228;BME280;46091;46.512;6.626;2023-05-25T09:11:47;97059.06;;;19.10;53.90
60228;BME280;46091;46.512;6.626;2023-05-25T09:13:50;97057.13;;;19.05;53.96
60228;BME280;46091;46.512;6.626;2023-05-25T09:15:54;97069.94;;;19.03;53.67
60228;BME280;46091;46.512;6.626;2023-05-25T09:17:57;97062.47;;;19.05;53.72
60228;BME280;46091;46.512;6.626;2023-05-25T09:20:02;97073.03;;;19.12;53.67
60228;BME280;46091;46.512;6.626;2023-05-25T09:22:05;97079.56;;;19.16;53.61
60228;BME280;46091;46.512;6.626;2023-05-25T09:24:17;97072.41;;;19.22;53.54
60228;BME280;46091;46.512;6.626;2023-05-25T09:26:22;97081.94;;;19.29;53.41
60228;BME280;46091;46.512;6.626;2023-05-25T09:28:26;97068.84;;;19.33;53.32
60228;BME280;46091;46.512;6.626;2023-05-25T09:30:30;97070.72;;;19.32;53.25
60228;BME280;46091;46.512;6.626;2023-05-25T09:32:37;97071.91;;;19.25;53.50
60228;BME280;46091;46.512;6.626;2023-05-25T09:34:42;97075.00;;;19.16;53.56
60228;BME280;46091;46.512;6.626;2023-05-25T09:36:47;97078.50;;;19.17;53.63
60228;BME280;46091;46.512;6.626;2023-05-25T09:38:51;97075.00;;;19.16;53.50
60228;BME280;46091;46.512;6.626;2023-05-25T09:40:55;97073.13;;;19.17;53.48
60228;BME280;46091;46.512;6.626;2023-05-25T09:42:58;97057.50;;;19.14;53.29
60228;BME280;46091;46.512;6.626;2023-05-25T09:45:02;97055.81;;;19.08;53.50
60228;BME280;46091;46.512;6.626;2023-05-25T09:47:05;97059.44;;;19.02;53.40
60228;BME280;46091;46.512;6.626;2023-05-25T09:49:09;97065.53;;;18.97;53.63
60228;BME280;46091;46.512;6.626;2023-05-25T09:51:13;97066.47;;;18.91;53.45
60228;BME280;46091;46.512;6.626;2023-05-25T09:53:17;97067.31;;;18.92;53.65
60228;BME280;46091;46.512;6.626;2023-05-25T09:55:20;97075.91;;;18.94;53.58
60228;BME280;46091;46.512;6.626;2023-05-25T09:57:23;97076.25;;;18.97;53.23
60228;BME280;46091;46.512;6.626;2023-05-25T09:59:28;97079.97;;;18.96;53.36
60228;BME280;46091;46.512;6.626;2023-05-25T10:01:33;97080.22;;;18.95;53.42
60228;BME280;46091;46.512;6.626;2023-05-25T10:03:44;97083.72;;;18.95;53.32
60228;BME280;46091;46.512;6.626;2023-05-25T10:06:04;97079.66;;;18.93;53.52
60228;BME280;46091;46.512;6.626;2023-05-25T10:08:08;97091.19;;;18.93;53.43
60228;BME280;46091;46.512;6.626;2023-05-25T10:10:13;97085.81;;;18.93;53.63
60228;BME280;46091;46.512;6.626;2023-05-25T10:12:18;97081.03;;;18.95;53.41
60228;BME280;46091;46.512;6.626;2023-05-25T10:14:24;97086.63;;;18.94;53.50
60228;BME280;46091;46.512;6.626;2023-05-25T10:16:32;97083.72;;;18.95;53.33
60228;BME280;46091;46.512;6.626;2023-05-25T10:18:39;97090.69;;;18.96;53.31
60228;BME280;46091;46.512;6.626;2023-05-25T10:20:46;97088.81;;;18.97;53.62
60228;BME280;46091;46.512;6.626;2023-05-25T10:22:56;97097.19;;;19.00;53.35
60228;BME280;46091;46.512;6.626;2023-05-25T10:25:07;97100.69;;;19.01;53.17
60228;BME280;46091;46.512;6.626;2023-05-25T10:27:16;97099.97;;;19.05;53.40
60228;BME280;46091;46.512;6.626;2023-05-25T10:29:29;97097.88;;;19.07;53.07
60228;BME280;46091;46.512;6.626;2023-05-25T10:31:33;97096.81;;;19.08;53.02
60228;BME280;46091;46.512;6.626;2023-05-25T10:33:39;97103.31;;;19.12;52.85
60228;BME280;46091;46.512;6.626;2023-05-25T10:35:41;97108.78;;;19.17;53.16
60228;BME280;46091;46.512;6.626;2023-05-25T10:38:05;97113.91;;;19.19;52.81
60228;BME280;46091;46.512;6.626;2023-05-25T10:40:08;97112.03;;;19.19;52.86
60228;BME280;46091;46.512;6.626;2023-05-25T10:42:20;97107.47;;;19.20;52.75
60228;BME280;46091;46.512;6.626;2023-05-25T10:44:24;97106.19;;;19.23;52.67
60228;BME280;46091;46.512;6.626;2023-05-25T10:46:28;97110.50;;;19.24;52.67
60228;BME280;46091;46.512;6.626;2023-05-25T10:48:34;97106.75;;;19.25;52.51
60228;BME280;46091;46.512;6.626;2023-05-25T10:50:38;97103.50;;;19.23;52.35
60228;BME280;46091;46.512;6.626;2023-05-25T10:52:40;97104.06;;;19.25;52.26
60228;BME280;46091;46.512;6.626;2023-05-25T10:54:43;97107.00;;;19.23;52.23
60228;BME280;46091;46.512;6.626;2023-05-25T10:57:07;97119.81;;;19.21;52.59
60228;BME280;46091;46.512;6.626;2023-05-25T10:59:13;97116.91;;;19.23;52.19
60228;BME280;46091;46.512;6.626;2023-05-25T11:01:15;97129.25;;;19.24;51.92
60228;BME280;46091;46.512;6.626;2023-05-25T11:03:19;97128.31;;;19.30;51.98
60228;BME280;46091;46.512;6.626;2023-05-25T11:05:34;97116.44;;;19.26;52.06
60228;BME280;46091;46.512;6.626;2023-05-25T11:07:51;97125.50;;;19.25;51.79
60228;BME280;46091;46.512;6.626;2023-05-25T11:09:56;97126.81;;;19.22;52.14
60228;BME280;46091;46.512;6.626;2023-05-25T11:12:00;97127.16;;;19.26;52.08
60228;BME280;46091;46.512;6.626;2023-05-25T11:14:04;97134.97;;;19.27;51.93
60228;BME280;46091;46.512;6.626;2023-05-25T11:16:19;97144.28;;;19.25;51.72
60228;BME280;46091;46.512;6.626;2023-05-25T11:18:36;97138.84;;;19.19;51.84
60228;BME280;46091;46.512;6.626;2023-05-25T11:20:39;97136.41;;;19.18;52.08
60228;BME280;46091;46.512;6.626;2023-05-25T11:22:42;97136.97;;;19.20;51.88
60228;BME280;46091;46.512;6.626;2023-05-25T11:24:45;97140.47;;;19.20;51.59
60228;BME280;46091;46.512;6.626;2023-05-25T11:26:56;97147.94;;;19.18;51.71
60228;BME280;46091;46.512;6.626;2023-05-25T11:29:10;97154.09;;;19.19;51.47
60228;BME280;46091;46.512;6.626;2023-05-25T11:31:15;97155.97;;;19.18;51.48
60228;BME280;46091;46.512;6.626;2023-05-25T11:33:19;97148.97;;;19.17;51.46
60228;BME280;46091;46.512;6.626;2023-05-25T11:35:24;97133.47;;;19.19;51.65
60228;BME280;46091;46.512;6.626;2023-05-25T11:37:29;97141.03;;;19.23;51.52
60228;BME280;46091;46.512;6.626;2023-05-25T11:39:34;97140.09;;;19.29;51.36
60228;BME280;46091;46.512;6.626;2023-05-25T11:41:37;97143.91;;;19.33;51.77
60228;BME280;46091;46.512;6.626;2023-05-25T11:43:44;97139.09;;;19.35;51.37
60228;BME280;46091;46.512;6.626;2023-05-25T11:45:54;97142.94;;;19.39;51.68
60228;BME280;46091;46.512;6.626;2023-05-25T11:47:59;97147.00;;;19.41;51.32
60228;BME280;46091;46.512;6.626;2023-05-25T11:50:03;97144.09;;;19.43;51.43
60228;BME280;46091;46.512;6.626;2023-05-25T11:52:06;97139.78;;;19.42;51.42
60228;BME280;46091;46.512;6.626;2023-05-25T11:54:09;97141.16;;;19.44;51.33
60228;BME280;46091;46.512;6.626;2023-05-25T11:56:13;97145.81;;;19.49;51.37
60228;BME280;46091;46.512;6.626;2023-05-25T11:58:34;97148.56;;;19.54;51.60
60228;BME280;46091;46.512;6.626;2023-05-25T12:00:37;97146.25;;;19.58;51.15
60228;BME280;46091;46.512;6.626;2023-05-25T12:02:41;97144.16;;;19.60;51.26
60228;BME280;46091;46.512;6.626;2023-05-25T12:04:53;97146.59;;;19.61;51.17
60228;BME280;46091;46.512;6.626;2023-05-25T12:07:06;97153.09;;;19.65;51.26
60228;BME280;46091;46.512;6.626;2023-05-25T12:09:10;97148.31;;;19.67;51.05
60228;BME280;46091;46.512;6.626;2023-05-25T12:11:14;97149.91;;;19.68;50.91
60228;BME280;46091;46.512;6.626;2023-05-25T12:13:17;97146.44;;;19.68;50.96
60228;BME280;46091;46.512;6.626;2023-05-25T12:15:21;97159.59;;;19.69;51.07
60228;BME280;46091;46.512;6.626;2023-05-25T12:17:25;97155.38;;;19.73;51.19
60228;BME280;46091;46.512;6.626;2023-05-25T12:19:28;97153.28;;;19.75;50.89
60228;BME280;46091;46.512;6.626;2023-05-25T12:21:32;97144.16;;;19.76;51.00
60228;BME280;46091;46.512;6.626;2023-05-25T12:23:39;97146.59;;;19.78;51.11
60228;BME280;46091;46.512;6.626;2023-05-25T12:25:44;97156.03;;;19.81;51.40
60228;BME280;46091;46.512;6.626;2023-05-25T12:28:09;97153.94;;;19.83;50.89
60228;BME280;46091;46.512;6.626;2023-05-25T12:30:12;97146.47;;;19.85;51.22
60228;BME280;46091;46.512;6.626;2023-05-25T12:32:15;97144.34;;;19.87;51.40
60228;BME280;46091;46.512;6.626;2023-05-25T12:34:19;97151.31;;;19.88;51.11
60228;BME280;46091;46.512;6.626;2023-05-25T12:36:39;97149.22;;;19.90;51.20
60228;BME280;46091;46.512;6.626;2023-05-25T12:38:57;97149.72;;;19.87;51.03
60228;BME280;46091;46.512;6.626;2023-05-25T12:41:07;97160.75;;;19.90;51.32
60228;BME280;46091;46.512;6.626;2023-05-25T12:43:10;97151.41;;;19.93;51.25
60228;BME280;46091;46.512;6.626;2023-05-25T12:45:14;97135.91;;;19.95;51.17
60228;BME280;46091;46.512;6.626;2023-05-25T12:47:18;97139.63;;;19.94;51.15
60228;BME280;46091;46.512;6.626;2023-05-25T12:49:24;97137.50;;;19.96;51.12
60228;BME280;46091;46.512;6.626;2023-05-25T12:51:37;97145.63;;;20.01;51.06
60228;BME280;46091;46.512;6.626;2023-05-25T12:53:48;97136.53;;;20.02;51.25
60228;BME280;46091;46.512;6.626;2023-05-25T12:55:59;97140.81;;;20.03;51.35
60228;BME280;46091;46.512;6.626;2023-05-25T12:58:04;97136.53;;;20.02;51.23
60228;BME280;46091;46.512;6.626;2023-05-25T13:00:09;97140.81;;;20.03;51.19
60228;BME280;46091;46.512;6.626;2023-05-25T13:02:13;97143.25;;;20.04;50.88
60228;BME280;46091;46.512;6.626;2023-05-25T13:04:16;97135.00;;;20.06;51.17
60228;BME280;46091;46.512;6.626;2023-05-25T13:06:19;97137.09;;;20.04;50.95
60228;BME280;46091;46.512;6.626;2023-05-25T13:08:24;97145.72;;;20.06;51.33
60228;BME280;46091;46.512;6.626;2023-05-25T13:10:28;97145.22;;;20.09;51.18
60228;BME280;46091;46.512;6.626;2023-05-25T13:12:31;97134.25;;;20.11;51.32
60228;BME280;46091;46.512;6.626;2023-05-25T13:14:41;97138.31;;;20.13;51.20
60228;BME280;46091;46.512;6.626;2023-05-25T13:16:44;97143.19;;;20.16;51.16
60228;BME280;46091;46.512;6.626;2023-05-25T13:18:48;97134.09;;;20.17;51.11
60228;BME280;46091;46.512;6.626;2023-05-25T13:20:51;97142.16;;;20.17;51.00
60228;BME280;46091;46.512;6.626;2023-05-25T13:22:57;97150.75;;;20.19;51.18
60228;BME280;46091;46.512;6.626;2023-05-25T13:25:02;97147.56;;;20.22;50.72
60228;BME280;46091;46.512;6.626;2023-05-25T13:27:06;97154.56;;;20.23;50.80
60228;BME280;46091;46.512;6.626;2023-05-25T13:29:08;97141.16;;;20.23;50.80
60228;BME280;46091;46.512;6.626;2023-05-25T13:31:12;97147.06;;;20.25;50.75
60228;BME280;46091;46.512;6.626;2023-05-25T13:33:14;97140.09;;;20.24;51.04
60228;BME280;46091;46.512;6.626;2023-05-25T13:35:18;97146.25;;;20.25;50.74
60228;BME280;46091;46.512;6.626;2023-05-25T13:37:38;97145.19;;;20.26;50.96
60228;BME280;46091;46.512;6.626;2023-05-25T13:39:42;97148.69;;;20.26;50.92
60228;BME280;46091;46.512;6.626;2023-05-25T13:41:46;97151.97;;;20.28;50.76
60228;BME280;46091;46.512;6.626;2023-05-25T13:43:49;97144.47;;;20.30;51.06
60228;BME280;46091;46.512;6.626;2023-05-25T13:45:53;97144.72;;;20.29;51.07
60228;BME280;46091;46.512;6.626;2023-05-25T13:47:56;97151.97;;;20.28;50.86
60228;BME280;46091;46.512;6.626;2023-05-25T13:50:00;97147.66;;;20.27;51.00
60228;BME280;46091;46.512;6.626;2023-05-25T13:52:03;97155.22;;;20.30;50.96
60228;BME280;46091;46.512;6.626;2023-05-25T13:54:06;97140.75;;;20.31;50.84
60228;BME280;46091;46.512;6.626;2023-05-25T13:56:09;97142.91;;;20.34;51.06
60228;BME280;46091;46.512;6.626;2023-05-25T13:58:13;97154.72;;;20.33;50.70
60228;BME280;46091;46.512;6.626;2023-05-25T14:00:17;97138.38;;;20.35;51.00
60228;BME280;46091;46.512;6.626;2023-05-25T14:02:19;97141.84;;;20.35;51.05
60228;BME280;46091;46.512;6.626;2023-05-25T14:04:22;97132.50;;;20.38;51.06
60228;BME280;46091;46.512;6.626;2023-05-25T14:06:26;97143.81;;;20.40;50.86
60228;BME280;46091;46.512;6.626;2023-05-25T14:08:29;97140.88;;;20.42;50.60
60228;BME280;46091;46.512;6.626;2023-05-25T14:10:33;97139.34;;;20.46;50.80
60228;BME280;46091;46.512;6.626;2023-05-25T14:12:36;97133.72;;;20.47;50.64
60228;BME280;46091;46.512;6.626;2023-05-25T14:14:40;97132.34;;;20.45;50.41
60228;BME280;46091;46.512;6.626;2023-05-25T14:16:43;97136.16;;;20.49;50.38
60228;BME280;46091;46.512;6.626;2023-05-25T14:18:46;97133.56;;;20.54;50.58
60228;BME280;46091;46.512;6.626;2023-05-25T14:20:49;97140.56;;;20.55;50.82
60228;BME280;46091;46.512;6.626;2023-05-25T14:22:53;97137.31;;;20.53;50.51
60228;BME280;46091;46.512;6.626;2023-05-25T14:24:56;97142.69;;;20.53;50.50
60228;BME280;46091;46.512;6.626;2023-05-25T14:26:59;97144.31;;;20.54;50.80
60228;BME280;46091;46.512;6.626;2023-05-25T14:29:02;97135.19;;;20.55;50.89
60228;BME280;46091;46.512;6.626;2023-05-25T14:31:08;97135.75;;;20.57;50.49
60228;BME280;46091;46.512;6.626;2023-05-25T14:33:12;97146.75;;;20.55;50.53
60228;BME280;46091;46.512;6.626;2023-05-25T14:35:17;97140.06;;;20.58;50.43
60228;BME280;46091;46.512;6.626;2023-05-25T14:37:20;97138.75;;;20.60;50.41
60228;BME280;46091;46.512;6.626;2023-05-25T14:39:23;97136.88;;;20.61;50.28
60228;BME280;46091;46.512;6.626;2023-05-25T14:41:26;97137.44;;;20.63;50.55
60228;BME280;46091;46.512;6.626;2023-05-25T14:43:30;97135.31;;;20.65;50.17
60228;BME280;46091;46.512;6.626;2023-05-25T14:45:33;97134.50;;;20.64;50.34
60228;BME280;46091;46.512;6.626;2023-05-25T14:47:37;97139.88;;;20.64;50.28
60228;BME280;46091;46.512;6.626;2023-05-25T14:49:41;97147.69;;;20.66;50.56
60228;BME280;46091;46.512;6.626;2023-05-25T14:51:44;97144.75;;;20.68;50.25
60228;BME280;46091;46.512;6.626;2023-05-25T14:53:47;97144.50;;;20.69;50.40
60228;BME280;46091;46.512;6.626;2023-05-25T14:55:51;97133.75;;;20.69;50.36
60228;BME280;46091;46.512;6.626;2023-05-25T14:57:54;97137.59;;;20.73;50.00
60228;BME280;46091;46.512;6.626;2023-05-25T14:59:57;97131.16;;;20.74;50.08
60228;BME280;46091;46.512;6.626;2023-05-25T15:02:00;97140.81;;;20.75;49.79
60228;BME280;46091;46.512;6.626;2023-05-25T15:04:04;97140.81;;;20.75;49.69
60228;BME280;46091;46.512;6.626;2023-05-25T15:06:09;97144.06;;;20.77;50.06
60228;BME280;46091;46.512;6.626;2023-05-25T15:08:12;97141.94;;;20.79;49.69
60228;BME280;46091;46.512;6.626;2023-05-25T15:10:15;97144.38;;;20.81;49.63
60228;BME280;46091;46.512;6.626;2023-05-25T15:12:18;97150.56;;;20.81;49.76
60228;BME280;46091;46.512;6.626;2023-05-25T15:14:21;97149.50;;;20.82;49.50
60228;BME280;46091;46.512;6.626;2023-05-25T15:16:24;97149.50;;;20.82;50.01
60228;BME280;46091;46.512;6.626;2023-05-25T15:18:27;97152.19;;;20.82;49.98
60228;BME280;46091;46.512;6.626;2023-05-25T15:20:31;97150.09;;;20.84;49.47
60228;BME280;46091;46.512;6.626;2023-05-25T15:22:34;97153.81;;;20.83;49.78
60228;BME280;46091;46.512;6.626;2023-05-25T15:24:37;97157.34;;;20.84;49.79
60228;BME280;46091;46.512;6.626;2023-05-25T15:26:40;97148.44;;;20.83;49.51
60228;BME280;46091;46.512;6.626;2023-05-25T15:28:43;97164.09;;;20.86;49.48
60228;BME280;46091;46.512;6.626;2023-05-25T15:30:48;97160.59;;;20.86;49.42
60228;BME280;46091;46.512;6.626;2023-05-25T15:32:52;97153.34;;;20.86;49.69
60228;BME280;46091;46.512;6.626;2023-05-25T15:34:55;97162.47;;;20.85;49.68
60228;BME280;46091;46.512;6.626;2023-05-25T15:37:00;97160.59;;;20.86;49.32
60228;BME280;46091;46.512;6.626;2023-05-25T15:39:03;97160.03;;;20.84;49.25
60228;BME280;46091;46.512;6.626;2023-05-25T15:41:10;97147.41;;;20.84;49.47
60228;BME280;46091;46.512;6.626;2023-05-25T15:43:16;97156.03;;;20.86;49.52
60228;BME280;46091;46.512;6.626;2023-05-25T15:45:22;97159.25;;;20.88;49.13
60228;BME280;46091;46.512;6.626;2023-05-25T15:47:27;97163.00;;;20.87;49.63
60228;BME280;46091;46.512;6.626;2023-05-25T15:49:30;97156.03;;;20.86;49.47
60228;BME280;46091;46.512;6.626;2023-05-25T15:51:37;97164.88;;;20.87;49.42
60228;BME280;46091;46.512;6.626;2023-05-25T15:53:44;97166.25;;;20.89;49.03
60228;BME280;46091;46.512;6.626;2023-05-25T15:55:47;97164.63;;;20.88;48.99
60228;BME280;46091;46.512;6.626;2023-05-25T15:57:51;97165.69;;;20.87;49.18
60228;BME280;46091;46.512;6.626;2023-05-25T15:59:54;97163.00;;;20.87;48.94
60228;BME280;46091;46.512;6.626;2023-05-25T16:01:56;97159.25;;;20.88;49.37
60228;BME280;46091;46.512;6.626;2023-05-25T16:04:00;97155.50;;;20.89;49.09
60228;BME280;46091;46.512;6.626;2023-05-25T16:06:03;97160.06;;;20.89;49.37
60228;BME280;46091;46.512;6.626;2023-05-25T16:08:05;97156.88;;;20.92;49.08
60228;BME280;46091;46.512;6.626;2023-05-25T16:10:10;97159.56;;;20.92;49.15
60228;BME280;46091;46.512;6.626;2023-05-25T16:12:13;97167.63;;;20.92;49.10
60228;BME280;46091;46.512;6.626;2023-05-25T16:14:16;97160.63;;;20.91;48.86
60228;BME280;46091;46.512;6.626;2023-05-25T16:16:18;97162.50;;;20.90;48.81
60228;BME280;46091;46.512;6.626;2023-05-25T16:18:22;97159.81;;;20.90;49.04
60228;BME280;46091;46.512;6.626;2023-05-25T16:20:25;97151.84;;;20.96;48.60
60228;BME280;46091;46.512;6.626;2023-05-25T16:22:28;97161.31;;;21.03;48.58
60228;BME280;46091;46.512;6.626;2023-05-25T16:24:31;97163.00;;;21.09;48.82
60228;BME280;46091;46.512;6.626;2023-05-25T16:26:35;97159.06;;;21.17;48.29
60228;BME280;46091;46.512;6.626;2023-05-25T16:28:38;97157.50;;;21.21;48.67
60228;BME280;46091;46.512;6.626;2023-05-25T16:30:41;97162.97;;;21.26;48.54